createdAt,value
2022-09-16T00:00:59.342Z,17.43
2022-09-16T00:03:27.199Z,17.35
2022-09-16T00:05:55.366Z,17.17
2022-09-16T00:08:24.523Z,17.16
2022-09-16T00:10:52.694Z,17.20
2022-09-16T00:13:20.435Z,17.00
2022-09-16T00:15:50.983Z,16.97
2022-09-16T00:18:20.296Z,16.93
2022-09-16T00:20:49.752Z,16.94
2022-09-16T00:23:17.984Z,16.75
2022-09-16T00:25:52.491Z,16.79
2022-09-16T00:28:21.614Z,16.86
2022-09-16T00:30:49.883Z,16.86
2022-09-16T00:33:18.645Z,16.68
2022-09-16T00:35:46.854Z,16.67
2022-09-16T00:38:14.967Z,16.80
2022-09-16T00:40:48.054Z,16.98
2022-09-16T00:43:17.426Z,17.00
2022-09-16T00:45:47.726Z,17.09
2022-09-16T00:48:20.225Z,17.05
2022-09-16T00:50:51.685Z,17.10
2022-09-16T00:53:24.064Z,17.19
2022-09-16T00:55:55.966Z,17.15
2022-09-16T00:58:28.894Z,17.07
2022-09-16T01:00:56.930Z,16.62
2022-09-16T01:03:26.207Z,16.48
2022-09-16T01:05:54.188Z,16.40
2022-09-16T01:08:21.974Z,16.31
2022-09-16T01:10:49.666Z,16.48
2022-09-16T01:13:18.907Z,16.34
2022-09-16T01:15:56.579Z,16.10
2022-09-16T01:18:30.458Z,16.19
2022-09-16T01:21:35.289Z,16.16
2022-09-16T01:24:30.912Z,16.28
2022-09-16T01:27:17.292Z,16.45
2022-09-16T01:30:16.008Z,16.36
2022-09-16T01:32:58.682Z,16.35
2022-09-16T01:35:36.672Z,16.27
2022-09-16T01:38:13.810Z,16.23
2022-09-16T01:40:53.920Z,16.11
2022-09-16T01:43:25.814Z,16.28
2022-09-16T01:45:57.520Z,16.41
2022-09-16T01:48:35.286Z,16.42
2022-09-16T01:51:09.701Z,16.43
2022-09-16T01:53:40.345Z,16.53
2022-09-16T01:56:12.110Z,16.48
2022-09-16T01:58:44.525Z,16.31
2022-09-16T02:01:17.680Z,16.36
2022-09-16T02:03:53.401Z,16.34
2022-09-16T02:06:24.773Z,16.21
2022-09-16T02:08:57.862Z,16.19
2022-09-16T02:11:26.545Z,16.10
2022-09-16T02:13:58.896Z,16.10
2022-09-16T02:16:31.431Z,16.04
2022-09-16T02:19:06.656Z,15.96
2022-09-16T02:21:36.945Z,15.86
2022-09-16T02:24:11.054Z,15.93
2022-09-16T02:26:47.457Z,15.79
2022-09-16T02:29:20.530Z,15.81
2022-09-16T02:31:53.610Z,15.89
2022-09-16T02:34:29.720Z,15.99
2022-09-16T02:37:03.501Z,15.93
2022-09-16T02:39:36.194Z,15.79
2022-09-16T02:42:04.552Z,15.88
2022-09-16T02:44:34.234Z,15.96
2022-09-16T02:47:08.562Z,15.94
2022-09-16T02:49:42.128Z,15.61
2022-09-16T02:52:17.278Z,15.51
2022-09-16T02:54:51.176Z,15.43
2022-09-16T02:57:19.182Z,15.44
2022-09-16T02:59:47.150Z,15.24
2022-09-16T03:02:15.310Z,15.10
2022-09-16T03:04:44.455Z,15.22
2022-09-16T03:07:13.706Z,15.30
2022-09-16T03:09:44.933Z,15.21
2022-09-16T03:12:22.512Z,15.32
2022-09-16T03:15:19.528Z,15.37
2022-09-16T03:18:25.862Z,15.45
2022-09-16T03:21:01.195Z,15.44
2022-09-16T03:23:44.591Z,15.65
2022-09-16T03:26:19.827Z,15.70
2022-09-16T03:28:56.421Z,15.78
2022-09-16T03:31:30.079Z,15.63
2022-09-16T03:34:06.357Z,15.41
2022-09-16T03:36:41.299Z,15.52
2022-09-16T03:39:11.825Z,15.42
2022-09-16T03:41:40.113Z,15.43
2022-09-16T03:44:07.805Z,15.65
2022-09-16T03:46:35.939Z,15.01
2022-09-16T03:49:04.193Z,14.99
2022-09-16T03:51:31.921Z,14.93
2022-09-16T03:54:01.091Z,14.71
2022-09-16T03:56:28.785Z,14.82
2022-09-16T03:58:56.530Z,14.83
2022-09-16T04:01:24.300Z,15.00
2022-09-16T04:03:52.330Z,14.95
2022-09-16T04:06:20.128Z,15.09
2022-09-16T04:08:50.519Z,15.04
2022-09-16T04:11:19.591Z,15.15
2022-09-16T04:13:47.355Z,15.40
2022-09-16T04:16:21.098Z,15.43
2022-09-16T04:18:49.733Z,15.57
2022-09-16T04:21:18.318Z,15.67
2022-09-16T04:23:46.079Z,15.69
2022-09-16T04:26:13.757Z,15.89
2022-09-16T04:28:42.835Z,15.82
2022-09-16T04:31:12.877Z,15.51
2022-09-16T04:33:40.937Z,15.58
2022-09-16T04:36:12.143Z,15.68
2022-09-16T04:38:40.507Z,15.77
2022-09-16T04:41:10.146Z,15.89
2022-09-16T04:43:38.275Z,15.63
2022-09-16T04:46:08.040Z,15.88
2022-09-16T04:48:36.538Z,15.63
2022-09-16T04:51:06.709Z,15.52
2022-09-16T04:53:34.650Z,15.69
2022-09-16T04:56:07.704Z,15.83
2022-09-16T04:58:35.974Z,15.85
2022-09-16T05:01:12.671Z,16.15
2022-09-16T05:03:41.404Z,16.33
2022-09-16T05:06:11.221Z,16.40
2022-09-16T05:08:39.382Z,16.26
2022-09-16T05:11:08.583Z,16.03
2022-09-16T05:13:36.793Z,16.20
2022-09-16T05:16:06.705Z,16.18
2022-09-16T05:18:37.134Z,16.18
2022-09-16T05:21:07.412Z,16.09
2022-09-16T05:23:35.454Z,16.05
2022-09-16T05:26:05.177Z,16.02
2022-09-16T05:28:33.352Z,16.21
2022-09-16T05:31:15.051Z,16.36
2022-09-16T05:33:46.798Z,16.29
2022-09-16T05:36:16.726Z,16.35
2022-09-16T05:38:59.077Z,16.47
2022-09-16T05:41:32.758Z,16.54
2022-09-16T05:44:01.494Z,16.56
2022-09-16T05:46:29.994Z,16.49
2022-09-16T05:48:59.369Z,16.65
2022-09-16T05:51:27.091Z,16.61
2022-09-16T05:53:56.013Z,16.79
2022-09-16T05:56:25.728Z,16.85
2022-09-16T05:58:54.716Z,16.92
2022-09-16T06:01:24.450Z,16.91
2022-09-16T06:03:54.897Z,16.86
2022-09-16T06:06:26.046Z,16.77
2022-09-16T06:08:55.664Z,16.88
2022-09-16T06:11:24.234Z,16.76
2022-09-16T06:13:56.452Z,16.83
2022-09-16T06:16:25.774Z,16.80
2022-09-16T06:18:53.869Z,16.57
2022-09-16T06:21:22.876Z,16.65
2022-09-16T06:23:53.270Z,16.67
2022-09-16T06:26:24.245Z,16.54
2022-09-16T06:28:53.254Z,16.90
2022-09-16T06:31:23.270Z,16.79
2022-09-16T06:33:51.348Z,16.96
2022-09-16T06:36:20.830Z,16.92
2022-09-16T06:38:49.670Z,16.86
2022-09-16T06:41:20.331Z,16.89
2022-09-16T06:43:48.844Z,17.03
2022-09-16T06:46:18.648Z,16.98
2022-09-16T06:48:48.047Z,17.00
2022-09-16T06:51:18.519Z,17.23
2022-09-16T06:53:47.776Z,17.12
2022-09-16T06:56:17.446Z,17.21
2022-09-16T06:58:49.230Z,17.30
2022-09-16T07:01:19.194Z,17.31
2022-09-16T07:03:49.043Z,17.49
2022-09-16T07:06:17.765Z,17.47
2022-09-16T07:08:46.326Z,17.58
2022-09-16T07:11:15.967Z,17.71
2022-09-16T07:13:44.638Z,17.63
2022-09-16T07:16:15.697Z,17.61
2022-09-16T07:18:43.938Z,17.74
2022-09-16T07:21:14.342Z,17.79
2022-09-16T07:23:43.481Z,17.61
2022-09-16T07:26:12.534Z,17.83
2022-09-16T07:28:41.126Z,17.84
2022-09-16T07:31:10.673Z,17.73
2022-09-16T07:33:41.587Z,17.50
2022-09-16T07:36:11.215Z,17.47
2022-09-16T07:38:39.364Z,17.56
2022-09-16T07:41:08.194Z,17.64
2022-09-16T07:43:36.320Z,17.77
2022-09-16T07:46:04.557Z,17.83
2022-09-16T07:48:35.145Z,17.69
2022-09-16T07:51:07.321Z,17.79
2022-09-16T07:53:36.014Z,17.85
2022-09-16T07:56:04.641Z,17.83
2022-09-16T07:58:32.590Z,17.89
2022-09-16T08:01:04.555Z,18.06
2022-09-16T08:03:32.870Z,17.94
2022-09-16T08:06:01.629Z,18.04
2022-09-16T08:08:31.021Z,17.99
2022-09-16T08:11:00.350Z,17.90
2022-09-16T08:13:29.606Z,17.92
2022-09-16T08:16:03.425Z,17.98
2022-09-16T08:18:31.541Z,18.07
2022-09-16T08:21:01.284Z,18.00
2022-09-16T08:23:31.166Z,17.82
2022-09-16T08:25:59.522Z,17.85
2022-09-16T08:28:39.775Z,17.49
2022-09-16T08:31:17.281Z,17.25
2022-09-16T08:33:45.909Z,17.13
2022-09-16T08:36:17.016Z,17.09
2022-09-16T08:38:46.661Z,17.33
2022-09-16T08:41:32.034Z,17.78
2022-09-16T08:44:10.919Z,17.54
2022-09-16T08:46:47.269Z,17.19
2022-09-16T08:49:22.591Z,17.33
2022-09-16T08:51:50.694Z,17.65
2022-09-16T08:54:28.466Z,17.37
2022-09-16T08:57:04.754Z,17.84
2022-09-16T08:59:37.790Z,17.82
2022-09-16T09:02:26.654Z,18.17
2022-09-16T09:04:54.923Z,17.75
2022-09-16T09:07:30.917Z,18.09
2022-09-16T09:10:12.234Z,17.95
2022-09-16T09:12:46.750Z,18.25
2022-09-16T09:15:30.453Z,18.19
2022-09-16T09:18:13.939Z,18.58
2022-09-16T09:20:50.610Z,18.81
2022-09-16T09:23:38.622Z,18.59
2022-09-16T09:26:13.661Z,18.67
2022-09-16T09:29:05.085Z,18.96
2022-09-16T09:31:43.167Z,18.97
2022-09-16T09:34:24.723Z,18.81
2022-09-16T09:37:18.241Z,18.64
2022-09-16T09:39:57.641Z,19.25
2022-09-16T09:42:30.790Z,19.23
2022-09-16T09:45:04.708Z,19.30
2022-09-16T09:47:37.959Z,19.11
2022-09-16T09:50:14.734Z,19.13
2022-09-16T09:52:46.806Z,18.95
2022-09-16T09:55:17.544Z,18.97
2022-09-16T09:58:07.061Z,18.82
2022-09-16T10:00:34.797Z,18.66
2022-09-16T10:03:06.373Z,18.63
2022-09-16T10:05:34.460Z,18.35
2022-09-16T10:08:13.124Z,18.48
2022-09-16T10:10:50.257Z,18.30
2022-09-16T10:13:20.475Z,18.21
2022-09-16T10:15:53.280Z,18.16
2022-09-16T10:18:27.227Z,18.19
2022-09-16T10:21:02.167Z,18.84
2022-09-16T10:23:30.548Z,18.70
2022-09-16T10:26:23.671Z,19.15
2022-09-16T10:29:01.923Z,19.36
2022-09-16T10:31:37.665Z,19.03
2022-09-16T10:34:15.133Z,18.75
2022-09-16T10:36:42.801Z,19.32
2022-09-16T10:39:24.398Z,19.30
2022-09-16T10:41:52.141Z,19.33
2022-09-16T10:44:26.142Z,19.20
2022-09-16T10:46:56.633Z,18.79
2022-09-16T10:49:30.673Z,18.83
2022-09-16T10:52:09.261Z,18.83
2022-09-16T10:54:36.973Z,18.95
2022-09-16T10:57:04.712Z,18.67
2022-09-16T10:59:33.797Z,18.95
2022-09-16T11:02:10.239Z,19.36
2022-09-16T11:04:50.888Z,19.23
2022-09-16T11:07:28.529Z,19.13
2022-09-16T11:10:03.117Z,19.78
2022-09-16T11:12:46.194Z,19.98
2022-09-16T11:15:25.879Z,19.68
2022-09-16T11:18:15.288Z,19.55
2022-09-16T11:20:58.171Z,19.11
2022-09-16T11:23:39.189Z,19.23
2022-09-16T11:26:16.567Z,19.95
2022-09-16T11:29:17.011Z,19.97
2022-09-16T11:31:55.206Z,20.04
2022-09-16T11:34:33.478Z,20.04
2022-09-16T11:37:13.541Z,19.43
2022-09-16T11:40:02.137Z,19.01
2022-09-16T11:42:36.100Z,19.31
2022-09-16T11:45:21.412Z,19.82
2022-09-16T11:48:07.185Z,19.94
2022-09-16T11:50:45.798Z,19.94
2022-09-16T11:53:32.856Z,20.14
2022-09-16T11:56:05.466Z,20.08
2022-09-16T11:58:39.056Z,20.42
2022-09-16T12:01:33.297Z,20.69
2022-09-16T12:04:09.332Z,20.41
2022-09-16T12:06:43.147Z,20.41
2022-09-16T12:09:15.110Z,20.30
2022-09-16T12:11:46.601Z,20.27
2022-09-16T12:14:19.769Z,20.18
2022-09-16T12:16:49.371Z,20.43
2022-09-16T12:19:23.764Z,20.51
2022-09-16T12:21:57.936Z,20.43
2022-09-16T12:24:33.918Z,20.92
2022-09-16T12:27:07.070Z,20.97
2022-09-16T12:29:39.495Z,20.66
2022-09-16T12:32:12.606Z,20.18
2022-09-16T12:34:45.277Z,20.42
2022-09-16T12:37:24.899Z,20.73
2022-09-16T12:39:53.903Z,20.90
2022-09-16T12:42:58.037Z,20.70
2022-09-16T12:45:52.054Z,20.28
2022-09-16T12:48:51.356Z,20.04
2022-09-16T12:51:37.662Z,20.04
2022-09-16T12:54:40.928Z,19.98
2022-09-16T12:57:31.509Z,21.14
2022-09-16T13:00:21.501Z,21.03
2022-09-16T13:02:53.167Z,20.57
2022-09-16T13:05:33.040Z,20.09
2022-09-16T13:08:06.662Z,20.33
2022-09-16T13:10:54.922Z,20.82
2022-09-16T13:13:32.394Z,21.49
2022-09-16T13:16:02.017Z,21.43
2022-09-16T13:18:41.961Z,21.31
2022-09-16T13:21:22.751Z,21.08
2022-09-16T13:24:00.109Z,21.41
2022-09-16T13:26:39.596Z,22.07
2022-09-16T13:29:25.934Z,21.99
2022-09-16T13:31:53.811Z,21.56
2022-09-16T13:34:22.040Z,21.29
2022-09-16T13:36:50.074Z,20.49
2022-09-16T13:39:31.293Z,20.53
2022-09-16T13:42:11.481Z,20.92
2022-09-16T13:44:43.189Z,20.94
2022-09-16T13:47:17.016Z,21.42
2022-09-16T13:49:49.859Z,21.95
2022-09-16T13:52:21.922Z,22.20
2022-09-16T13:55:10.084Z,21.81
2022-09-16T13:57:52.806Z,22.66
2022-09-16T14:00:22.934Z,22.32
2022-09-16T14:03:18.327Z,21.63
2022-09-16T14:06:05.791Z,20.63
2022-09-16T14:08:42.614Z,20.37
2022-09-16T14:11:19.329Z,20.20
2022-09-16T14:13:51.593Z,19.88
2022-09-16T14:16:24.056Z,19.63
2022-09-16T14:19:00.620Z,20.35
2022-09-16T14:21:28.342Z,20.19
2022-09-16T14:23:56.135Z,20.12
2022-09-16T14:26:25.622Z,20.81
2022-09-16T14:29:04.017Z,21.31
2022-09-16T14:31:33.667Z,21.07
2022-09-16T14:34:06.668Z,20.93
2022-09-16T14:36:38.792Z,21.06
2022-09-16T14:39:12.973Z,21.64
2022-09-16T14:41:53.646Z,21.43
2022-09-16T14:44:27.605Z,21.44
2022-09-16T14:47:07.461Z,20.76
2022-09-16T14:49:38.989Z,20.12
2022-09-16T14:52:17.278Z,19.82
2022-09-16T14:54:45.612Z,19.66
2022-09-16T14:57:20.569Z,19.51
2022-09-16T14:59:48.758Z,19.33
2022-09-16T15:02:20.542Z,19.53
2022-09-16T15:04:53.766Z,19.86
2022-09-16T15:07:23.282Z,20.05
2022-09-16T15:09:55.553Z,20.26
2022-09-16T15:12:29.457Z,20.84
2022-09-16T15:14:57.868Z,21.24
2022-09-16T15:17:28.966Z,21.41
2022-09-16T15:19:59.835Z,21.01
2022-09-16T15:22:28.622Z,20.29
2022-09-16T15:24:59.363Z,20.17
2022-09-16T15:27:32.225Z,20.04
2022-09-16T15:30:05.461Z,19.78
2022-09-16T15:32:33.318Z,19.76
2022-09-16T15:35:11.151Z,19.75
2022-09-16T15:37:39.027Z,20.21
2022-09-16T15:40:21.460Z,20.07
2022-09-16T15:43:03.450Z,19.95
2022-09-16T15:45:31.365Z,20.13
2022-09-16T15:48:02.413Z,20.48
2022-09-16T15:50:39.389Z,20.34
2022-09-16T15:53:11.294Z,20.35
2022-09-16T15:55:44.130Z,20.51
2022-09-16T15:58:16.992Z,20.61
2022-09-16T16:01:03.871Z,20.52
2022-09-16T16:03:36.441Z,20.67
2022-09-16T16:06:05.099Z,20.95
2022-09-16T16:08:42.493Z,20.74
2022-09-16T16:11:12.238Z,20.26
2022-09-16T16:13:41.816Z,19.81
2022-09-16T16:16:10.235Z,19.98
2022-09-16T16:18:39.341Z,20.00
2022-09-16T16:21:08.827Z,19.43
2022-09-16T16:23:37.542Z,19.44
2022-09-16T16:26:06.368Z,19.39
2022-09-16T16:28:34.561Z,19.56
2022-09-16T16:31:11.520Z,19.35
2022-09-16T16:33:43.961Z,19.41
2022-09-16T16:36:12.805Z,18.98
2022-09-16T16:38:40.613Z,18.89
2022-09-16T16:41:09.166Z,19.01
2022-09-16T16:43:36.937Z,19.24
2022-09-16T16:46:05.146Z,19.48
2022-09-16T16:48:34.230Z,19.68
2022-09-16T16:51:04.652Z,19.27
2022-09-16T16:53:33.266Z,19.15
2022-09-16T16:56:05.653Z,19.00
2022-09-16T16:58:35.949Z,19.00
2022-09-16T17:01:10.392Z,19.24
2022-09-16T17:03:39.918Z,19.22
2022-09-16T17:06:08.442Z,18.95
2022-09-16T17:08:36.681Z,18.59
2022-09-16T17:11:10.075Z,18.62
2022-09-16T17:13:38.218Z,18.59
2022-09-16T17:16:06.710Z,18.50
2022-09-16T17:18:34.836Z,18.38
2022-09-16T17:21:05.224Z,18.30
2022-09-16T17:23:33.334Z,18.07
2022-09-16T17:26:01.670Z,18.50
2022-09-16T17:28:29.766Z,18.62
2022-09-16T17:30:57.677Z,18.29
2022-09-16T17:33:26.206Z,18.32
2022-09-16T17:36:01.872Z,18.21
2022-09-16T17:38:31.420Z,18.26
2022-09-16T17:41:04.053Z,18.20
2022-09-16T17:43:32.889Z,18.16
2022-09-16T17:46:01.064Z,18.03
2022-09-16T17:48:29.764Z,18.04
2022-09-16T17:50:58.228Z,17.94
2022-09-16T17:53:26.383Z,18.01
2022-09-16T17:56:02.989Z,17.94
2022-09-16T17:58:31.252Z,18.04
2022-09-16T18:01:05.993Z,17.89
2022-09-16T18:03:34.242Z,17.77
2022-09-16T18:06:07.418Z,17.75
2022-09-16T18:08:35.353Z,17.75
2022-09-16T18:11:05.466Z,17.71
2022-09-16T18:13:34.071Z,17.49
2022-09-16T18:16:07.063Z,17.67
2022-09-16T18:18:36.615Z,17.61
2022-09-16T18:21:05.909Z,17.62
2022-09-16T18:23:34.097Z,17.54
2022-09-16T18:26:06.877Z,17.44
2022-09-16T18:28:58.049Z,17.47
2022-09-16T18:31:25.125Z,17.39
2022-09-16T18:33:53.682Z,17.47
2022-09-16T18:36:25.102Z,17.43
2022-09-16T18:38:54.168Z,17.42
2022-09-16T18:41:25.326Z,17.24
2022-09-16T18:43:55.474Z,16.93
2022-09-16T18:46:26.712Z,17.00
2022-09-16T18:48:54.842Z,17.11
2022-09-16T18:51:24.256Z,17.10
2022-09-16T18:53:53.805Z,17.11
2022-09-16T18:56:24.974Z,17.02
2022-09-16T18:59:19.973Z,17.24
2022-09-16T19:01:43.611Z,17.11
2022-09-16T19:04:13.321Z,17.07
2022-09-16T19:06:43.582Z,17.22
2022-09-16T19:09:13.474Z,17.22
2022-09-16T19:11:42.937Z,17.09
2022-09-16T19:14:13.678Z,17.14
2022-09-16T19:16:42.726Z,17.04
2022-09-16T19:19:12.318Z,16.93
2022-09-16T19:21:40.868Z,16.83
2022-09-16T19:24:13.951Z,16.83
2022-09-16T19:26:44.438Z,17.02
2022-09-16T19:29:13.868Z,17.08
2022-09-16T19:31:43.317Z,17.03
2022-09-16T19:34:11.452Z,16.84
2022-09-16T19:36:40.482Z,16.83
2022-09-16T19:39:09.322Z,16.81
2022-09-16T19:41:40.002Z,16.76
2022-09-16T19:44:12.217Z,16.72
2022-09-16T19:46:42.514Z,16.61
2022-09-16T19:49:14.706Z,16.75
2022-09-16T19:51:42.965Z,16.74
2022-09-16T19:54:10.718Z,16.54
2022-09-16T19:56:38.550Z,16.72
2022-09-16T19:59:06.472Z,16.64
2022-09-16T20:01:36.973Z,16.69
2022-09-16T20:04:07.012Z,16.70
2022-09-16T20:06:37.096Z,16.65
2022-09-16T20:09:06.854Z,16.52
2022-09-16T20:11:37.139Z,16.50
2022-09-16T20:14:06.518Z,16.36
2022-09-16T20:16:38.736Z,16.48
2022-09-16T20:19:08.752Z,16.45
2022-09-16T20:21:37.754Z,16.43
2022-09-16T20:24:07.807Z,16.40
2022-09-16T20:26:36.725Z,16.24
2022-09-16T20:29:05.442Z,16.19
2022-09-16T20:31:37.213Z,16.12
2022-09-16T20:34:05.886Z,15.97
2022-09-16T20:36:38.088Z,15.84
2022-09-16T20:39:06.605Z,15.86
2022-09-16T20:41:37.489Z,16.03
2022-09-16T20:44:06.261Z,15.98
2022-09-16T20:46:36.870Z,15.80
2022-09-16T20:49:09.371Z,15.75
2022-09-16T20:51:37.722Z,15.93
2022-09-16T20:54:08.449Z,15.92
2022-09-16T20:56:39.099Z,15.93
2022-09-16T20:59:08.150Z,15.80
2022-09-16T21:01:38.866Z,15.69
2022-09-16T21:04:08.735Z,15.63
2022-09-16T21:06:37.269Z,15.76
2022-09-16T21:09:07.482Z,15.76
2022-09-16T21:11:35.627Z,15.71
2022-09-16T21:14:06.359Z,15.69
2022-09-16T21:16:36.029Z,15.55
2022-09-16T21:19:09.188Z,15.64
2022-09-16T21:21:38.846Z,15.63
2022-09-16T21:24:08.594Z,15.53
2022-09-16T21:26:38.345Z,15.44
2022-09-16T21:29:09.809Z,15.32
2022-09-16T21:31:38.890Z,15.17
2022-09-16T21:34:12.469Z,15.31
2022-09-16T21:36:40.328Z,15.28
2022-09-16T21:39:08.448Z,15.47
2022-09-16T21:41:36.463Z,15.25
2022-09-16T21:44:05.233Z,15.29
2022-09-16T21:46:39.475Z,15.34
2022-09-16T21:49:14.421Z,15.22
2022-09-16T21:51:42.113Z,15.18
2022-09-16T21:54:11.013Z,14.90
2022-09-16T21:56:40.005Z,14.63
2022-09-16T21:59:08.717Z,14.66
2022-09-16T22:01:38.203Z,14.69
2022-09-16T22:04:11.593Z,14.69
2022-09-16T22:06:39.356Z,14.64
2022-09-16T22:09:09.297Z,14.48
2022-09-16T22:11:39.458Z,14.38
2022-09-16T22:14:07.705Z,14.24
2022-09-16T22:16:37.844Z,14.21
2022-09-16T22:19:07.801Z,14.23
2022-09-16T22:21:40.002Z,14.16
2022-09-16T22:24:08.544Z,14.23
2022-09-16T22:26:37.039Z,14.26
2022-09-16T22:29:06.168Z,14.35
2022-09-16T22:31:35.148Z,14.40
2022-09-16T22:34:03.353Z,14.48
2022-09-16T22:36:32.498Z,14.57
2022-09-16T22:39:06.217Z,14.64
2022-09-16T22:41:34.960Z,14.45
2022-09-16T22:44:03.465Z,14.47
2022-09-16T22:46:33.617Z,14.52
2022-09-16T22:49:01.962Z,14.37
2022-09-16T22:51:29.962Z,13.98
2022-09-16T22:53:57.794Z,13.55
2022-09-16T22:56:29.326Z,13.41
2022-09-16T22:58:58.038Z,13.25
2022-09-16T23:01:27.481Z,13.15
2022-09-16T23:03:57.364Z,12.95
2022-09-16T23:06:26.570Z,12.92
2022-09-16T23:08:54.747Z,12.94
2022-09-16T23:11:24.647Z,12.92
2022-09-16T23:13:54.745Z,12.93
2022-09-16T23:16:24.473Z,13.05
2022-09-16T23:18:52.203Z,13.20
2022-09-16T23:21:22.878Z,13.25
2022-09-16T23:23:53.049Z,13.19
2022-09-16T23:26:22.966Z,13.09
2022-09-16T23:28:54.337Z,13.05
2022-09-16T23:31:24.345Z,13.13
2022-09-16T23:33:52.482Z,13.11
2022-09-16T23:36:21.198Z,13.17
2022-09-16T23:38:49.333Z,13.27
2022-09-16T23:41:19.726Z,13.40
2022-09-16T23:43:48.858Z,13.25
2022-09-16T23:46:21.117Z,12.90
2022-09-16T23:48:51.061Z,12.93
2022-09-16T23:51:22.605Z,12.93
2022-09-16T23:53:54.016Z,12.77
2022-09-16T23:56:22.244Z,12.73
2022-09-16T23:58:50.410Z,12.79
